Terminal Aerodrome Forecast
Issued by NWS Houston/Galveston, TX

Home | Current Version | Previous Version | Text Only | Print | Product List | Glossary On
Versions: 1 2 3 4 5 6 7 8 9 10 11 12 13 14 15 16 17 18 19 20 21 22 23 24 25 26 27 28 29 30 31 32 33 34 35 36 37 38 39 40 41 42 43 44 45 46 47 48 49 50
000
FTUS44 KHGX 201132
TAFCLL
TAF
KCLL 201132Z 2012/2112 16006KT P6SM SCT012
      TEMPO 2012/2014 4SM BR BKN008
     FM201500 18010KT P6SM SCT008 BKN015
     FM201900 18012KT P6SM VCSH SCT025 BKN040
     FM210100 15008KT P6SM FEW250
     FM210900 16006KT 6SM BR BKN015=

USA.gov is the U.S. government's official web portal to all federal, state and local government web resources and services.